createdAt,value
2023-01-11T02:15:02.135Z,3.15
2023-01-11T02:17:29.772Z,0.85
2023-01-11T02:20:07.183Z,1.67
2023-01-11T02:23:01.784Z,1.00
2023-01-11T02:26:05.177Z,1.90
2023-01-11T02:28:42.475Z,1.50
2023-01-11T02:31:20.210Z,0.90
2023-01-11T02:33:56.698Z,1.30
2023-01-11T02:36:32.573Z,0.75
2023-01-11T02:39:08.691Z,1.20
2023-01-11T02:42:05.305Z,1.52
2023-01-11T02:44:58.398Z,1.33
2023-01-11T02:47:35.469Z,1.65
2023-01-11T02:50:10.489Z,2.03
2023-01-11T02:52:45.176Z,1.30
2023-01-11T02:55:16.232Z,2.33
2023-01-11T02:57:45.088Z,2.08
2023-01-11T03:00:41.760Z,1.00
2023-01-11T03:03:15.235Z,1.20
2023-01-11T03:05:48.920Z,2.00
2023-01-11T03:08:32.207Z,2.97
2023-01-11T03:11:07.644Z,0.98
2023-01-11T03:13:45.679Z,2.00
2023-01-11T03:16:24.246Z,2.25
2023-01-11T03:19:01.027Z,2.15
2023-01-11T03:21:47.161Z,1.05
2023-01-11T03:24:27.145Z,1.10
2023-01-11T03:27:09.435Z,1.90
2023-01-11T03:32:23.114Z,1.45
2023-01-11T03:35:03.048Z,1.98
2023-01-11T03:37:38.252Z,1.00
2023-01-11T03:40:11.627Z,1.15
2023-01-11T03:43:04.171Z,1.48
2023-01-11T03:45:40.605Z,1.40
2023-01-11T03:48:15.280Z,1.90
2023-01-11T03:50:48.577Z,1.00
2023-01-11T03:53:19.270Z,1.17
2023-01-11T03:55:50.625Z,1.00
2023-01-11T03:58:18.504Z,0.90
2023-01-11T04:00:47.180Z,1.40
2023-01-11T04:03:16.274Z,1.55
2023-01-11T04:05:48.538Z,0.77
2023-01-11T04:08:16.168Z,2.13
2023-01-11T04:11:09.131Z,1.17
2023-01-11T04:13:37.010Z,1.95
2023-01-11T04:16:05.176Z,1.40
2023-01-11T04:18:34.141Z,2.10
2023-01-11T04:21:03.400Z,1.17
2023-01-11T04:23:30.958Z,1.23
2023-01-11T04:25:58.592Z,1.70
2023-01-11T04:28:27.603Z,1.70
2023-01-11T04:30:56.287Z,1.20
2023-01-11T04:33:24.600Z,1.00
2023-01-11T04:35:53.581Z,1.20
2023-01-11T04:38:24.887Z,1.05
2023-01-11T04:41:14.186Z,1.33
2023-01-11T04:43:41.365Z,1.10
2023-01-11T04:46:14.176Z,2.40
2023-01-11T04:48:43.173Z,2.28
2023-01-11T04:51:37.599Z,2.53
2023-01-11T04:54:29.938Z,2.17
2023-01-11T04:56:58.988Z,1.77
2023-01-11T04:59:26.682Z,1.33
2023-01-11T05:01:55.179Z,0.98
2023-01-11T05:04:23.300Z,2.28
2023-01-11T05:06:52.559Z,2.35
2023-01-11T05:09:20.523Z,2.00
2023-01-11T05:11:48.703Z,0.93
2023-01-11T05:14:20.174Z,1.55
2023-01-11T05:16:48.795Z,1.30
2023-01-11T05:19:16.409Z,1.90
2023-01-11T05:21:45.280Z,2.00
2023-01-11T05:24:18.173Z,3.90
2023-01-11T05:26:48.286Z,2.85
2023-01-11T05:29:17.139Z,2.67
2023-01-11T05:31:50.272Z,2.63
2023-01-11T05:34:18.862Z,1.50
2023-01-11T05:36:46.511Z,1.42
2023-01-11T05:39:15.876Z,1.02
2023-01-11T05:41:43.534Z,1.00
2023-01-11T05:44:30.101Z,1.30
2023-01-11T05:46:58.202Z,1.10
2023-01-11T05:49:26.255Z,1.80
2023-01-11T05:51:53.953Z,3.03
2023-01-11T05:54:23.279Z,1.98
2023-01-11T05:56:50.880Z,2.10
2023-01-11T05:59:22.173Z,2.72
2023-01-11T06:01:49.944Z,1.50
2023-01-11T06:04:18.191Z,2.50
2023-01-11T06:06:47.800Z,3.72
2023-01-11T06:09:16.165Z,2.70
2023-01-11T06:11:45.287Z,2.50
2023-01-11T06:14:13.983Z,4.05
2023-01-11T06:16:41.599Z,3.47
2023-01-11T06:19:11.802Z,2.70
2023-01-11T06:21:39.838Z,4.15
2023-01-11T06:24:08.030Z,3.15
2023-01-11T06:26:35.629Z,4.38
2023-01-11T06:29:04.614Z,3.58
2023-01-11T06:31:32.528Z,3.70
2023-01-11T06:34:00.706Z,3.80
2023-01-11T06:36:29.918Z,3.83
2023-01-11T06:38:57.623Z,4.13
2023-01-11T06:41:28.566Z,3.65
2023-01-11T06:46:53.187Z,3.90
2023-01-11T06:49:20.780Z,4.55
2023-01-11T06:51:49.235Z,4.60
2023-01-11T06:54:21.830Z,4.20
2023-01-11T06:56:49.717Z,3.72
2023-01-11T06:59:17.595Z,4.40
2023-01-11T07:01:45.724Z,4.00
2023-01-11T07:04:14.711Z,5.03
2023-01-11T07:06:44.174Z,3.65
2023-01-11T07:09:13.718Z,5.13
2023-01-11T07:11:42.311Z,4.78
2023-01-11T07:14:15.047Z,4.07
2023-01-11T07:16:43.326Z,5.15
2023-01-11T07:19:10.929Z,4.55
2023-01-11T07:21:40.173Z,3.65
2023-01-11T07:24:08.338Z,4.07
2023-01-11T07:26:41.021Z,4.03
2023-01-11T07:29:09.086Z,3.58
2023-01-11T07:31:36.906Z,4.80
2023-01-11T07:34:05.178Z,3.85
2023-01-11T07:36:36.706Z,3.67
2023-01-11T07:39:05.756Z,3.63
2023-01-11T07:41:51.430Z,3.28
2023-01-11T07:44:19.770Z,3.58
2023-01-11T07:46:47.820Z,3.85
2023-01-11T07:49:15.737Z,2.95
2023-01-11T07:51:43.324Z,3.30
2023-01-11T07:54:12.491Z,3.20
2023-01-11T07:56:41.679Z,4.20
2023-01-11T07:59:14.283Z,4.95
2023-01-11T08:01:41.917Z,3.70
2023-01-11T08:04:13.116Z,3.80
2023-01-11T08:06:42.797Z,3.90
2023-01-11T08:09:13.282Z,3.55
2023-01-11T08:12:01.380Z,3.97
2023-01-11T08:14:41.833Z,4.38
2023-01-11T08:17:15.162Z,4.07
2023-01-11T08:19:45.186Z,4.72
2023-01-11T08:22:13.169Z,4.32
2023-01-11T08:24:43.201Z,4.93
2023-01-11T08:27:11.376Z,3.80
2023-01-11T08:29:39.761Z,4.90
2023-01-11T08:32:07.534Z,4.30
2023-01-11T08:34:35.937Z,4.10
2023-01-11T08:37:08.203Z,4.63
2023-01-11T08:39:37.167Z,4.78
2023-01-11T08:42:07.152Z,5.55
2023-01-11T08:44:35.326Z,4.82
2023-01-11T08:47:03.113Z,5.50
2023-01-11T08:49:31.227Z,4.75
2023-01-11T08:51:58.834Z,4.53
2023-01-11T08:54:26.667Z,5.53
2023-01-11T08:56:54.317Z,5.10
2023-01-11T08:59:23.554Z,5.60
2023-01-11T09:01:51.211Z,4.82
2023-01-11T09:04:25.265Z,5.20
2023-01-11T09:06:53.821Z,4.95
2023-01-11T09:09:21.584Z,6.88
2023-01-11T09:11:58.708Z,5.38
2023-01-11T09:14:29.223Z,7.18
2023-01-11T09:16:57.508Z,5.35
2023-01-11T09:19:30.186Z,6.03
2023-01-11T09:22:00.444Z,5.50
2023-01-11T09:24:28.101Z,7.35
2023-01-11T09:26:56.334Z,6.57
2023-01-11T09:29:27.709Z,6.20
2023-01-11T09:31:56.252Z,6.13
2023-01-11T09:34:27.214Z,6.30
2023-01-11T09:39:28.200Z,6.25
2023-01-11T09:42:19.232Z,9.45
2023-01-11T09:44:52.273Z,8.00
2023-01-11T09:47:30.785Z,8.38
2023-01-11T09:50:01.323Z,9.90
2023-01-11T09:52:56.204Z,10.57
2023-01-11T09:55:33.363Z,10.45
2023-01-11T09:58:34.880Z,14.35
2023-01-11T10:01:13.736Z,12.85
2023-01-11T10:04:06.253Z,11.15
2023-01-11T10:06:45.750Z,14.30
2023-01-11T10:18:30.455Z,17.30
2023-01-11T10:19:18.427Z,14.95
2023-01-11T10:21:45.526Z,12.20
2023-01-11T10:24:22.061Z,15.63
2023-01-11T10:26:55.219Z,14.10
2023-01-11T10:29:46.148Z,15.10
2023-01-11T10:32:45.501Z,12.27
2023-01-11T10:35:37.060Z,13.10
2023-01-11T10:38:29.289Z,16.23
2023-01-11T10:41:04.612Z,12.57
2023-01-11T10:43:35.396Z,19.27
2023-01-11T10:46:09.191Z,12.75
2023-01-11T10:48:39.173Z,10.98
2023-01-11T10:51:20.213Z,11.02
2023-01-11T10:54:00.141Z,13.70
2023-01-11T10:57:01.870Z,13.50
2023-01-11T11:00:18.373Z,12.00
2023-01-11T11:03:03.343Z,11.88
2023-01-11T11:05:44.004Z,10.18
2023-01-11T11:08:20.817Z,14.13
2023-01-11T11:10:57.457Z,12.32
2023-01-11T11:13:36.652Z,11.40
2023-01-11T11:16:12.384Z,14.57
2023-01-11T11:18:40.089Z,12.15
2023-01-11T11:21:24.762Z,14.80
2023-01-11T11:23:57.987Z,11.43
2023-01-11T11:26:30.199Z,13.10
2023-01-11T11:29:02.629Z,7.95
2023-01-11T11:31:31.816Z,12.55
2023-01-11T11:34:06.867Z,12.90
2023-01-11T11:36:42.352Z,11.65
2023-01-11T11:39:20.974Z,12.70
2023-01-11T11:41:51.203Z,11.63
2023-01-11T11:44:24.141Z,15.68
2023-01-11T11:47:02.413Z,13.38
2023-01-11T11:49:32.424Z,10.20
2023-01-11T11:52:03.202Z,12.65
2023-01-11T11:54:34.908Z,12.18
2023-01-11T11:57:15.603Z,9.43
2023-01-11T12:02:25.260Z,10.95
2023-01-11T12:04:55.242Z,13.27
2023-01-11T12:07:55.316Z,9.98
2023-01-11T12:10:27.062Z,10.05
2023-01-11T12:12:56.526Z,15.47
2023-01-11T12:15:27.141Z,11.00
2023-01-11T12:17:55.502Z,12.82
2023-01-11T12:20:42.325Z,10.80
2023-01-11T12:23:14.823Z,15.70
2023-01-11T12:25:57.379Z,9.85
2023-01-11T12:28:37.971Z,11.23
2023-01-11T12:31:38.593Z,14.43
2023-01-11T12:34:17.394Z,9.43
2023-01-11T12:36:54.042Z,12.65
2023-01-11T12:39:40.323Z,9.90
2023-01-11T12:42:34.403Z,13.20
2023-01-11T12:45:16.750Z,14.18
2023-01-11T12:48:18.092Z,13.02
2023-01-11T12:54:07.899Z,11.43
2023-01-11T12:56:57.856Z,8.65
2023-01-11T12:59:44.284Z,12.73
2023-01-11T13:02:31.572Z,10.70
2023-01-11T13:05:15.195Z,11.73
2023-01-11T13:10:48.430Z,9.95
2023-01-11T13:13:21.254Z,7.78
2023-01-11T13:16:19.672Z,11.73
2023-01-11T13:18:53.499Z,9.40
2023-01-11T13:21:30.050Z,11.18
2023-01-11T13:24:03.204Z,10.60
2023-01-11T13:26:36.163Z,9.20
2023-01-11T13:29:16.097Z,10.95
2023-01-11T13:31:49.203Z,9.85
2023-01-11T13:34:26.341Z,10.20
2023-01-11T13:37:02.308Z,10.68
2023-01-11T13:39:59.893Z,11.13
2023-01-11T13:42:32.288Z,12.27
2023-01-11T13:45:09.279Z,11.43
2023-01-11T13:47:45.055Z,10.05
2023-01-11T13:50:21.501Z,14.25
2023-01-11T13:53:01.932Z,8.13
2023-01-11T13:55:37.827Z,10.75
2023-01-11T13:58:12.310Z,10.10
2023-01-11T14:00:45.443Z,11.45
2023-01-11T14:03:24.450Z,10.80
2023-01-11T14:06:03.391Z,10.18
2023-01-11T14:08:55.310Z,10.05
2023-01-11T14:11:31.951Z,12.13
2023-01-11T14:14:18.330Z,14.98
2023-01-11T14:17:11.423Z,8.13
2023-01-11T14:19:49.211Z,10.40
2023-01-11T14:22:27.318Z,8.10
2023-01-11T14:25:02.240Z,8.52
2023-01-11T14:27:52.698Z,10.07
2023-01-11T14:30:42.942Z,10.02
2023-01-11T14:33:45.489Z,10.90
2023-01-11T14:39:13.798Z,8.80
2023-01-11T14:45:25.171Z,11.48
2023-01-11T14:48:15.118Z,8.00
2023-01-11T14:50:54.578Z,12.65
2023-01-11T14:53:51.051Z,10.02
2023-01-11T14:56:48.733Z,7.38
2023-01-11T14:59:38.227Z,13.55
2023-01-11T15:02:31.431Z,10.57
2023-01-11T15:08:11.961Z,13.48
2023-01-11T15:10:48.299Z,9.75
2023-01-11T15:13:20.720Z,14.30
2023-01-11T15:16:08.184Z,11.00
2023-01-11T15:18:46.904Z,7.97
2023-01-11T15:21:26.313Z,10.27
2023-01-11T15:23:58.311Z,10.35
2023-01-11T15:26:29.233Z,9.20
2023-01-11T15:29:26.358Z,9.65
2023-01-11T15:32:07.788Z,14.52
2023-01-11T15:34:43.215Z,11.38
2023-01-11T15:37:57.035Z,13.80
2023-01-11T15:40:32.585Z,10.65
2023-01-11T15:43:38.829Z,11.48
2023-01-11T15:46:59.292Z,12.10
2023-01-11T15:50:24.321Z,15.43
2023-01-11T15:53:27.382Z,11.13
2023-01-11T15:56:18.352Z,11.82
2023-01-11T15:59:20.692Z,13.43
2023-01-11T16:04:31.624Z,12.43
2023-01-11T16:07:04.730Z,11.70
2023-01-11T16:10:03.668Z,10.95
2023-01-11T16:12:45.959Z,12.10
2023-01-11T16:15:40.200Z,15.25
2023-01-11T16:18:18.228Z,8.10
2023-01-11T16:20:59.258Z,8.65
2023-01-11T16:23:26.938Z,11.90
2023-01-11T16:25:58.438Z,11.45
2023-01-11T16:28:27.371Z,8.68
2023-01-11T16:30:59.002Z,8.05
2023-01-11T16:33:32.225Z,8.10
2023-01-11T16:36:13.215Z,12.32
2023-01-11T16:38:53.425Z,11.40
2023-01-11T16:44:30.339Z,12.98
2023-01-11T16:47:18.082Z,11.73
2023-01-11T16:49:49.018Z,13.05
2023-01-11T16:52:38.845Z,11.60
2023-01-11T16:55:34.247Z,14.50
2023-01-11T16:58:05.756Z,10.85
2023-01-11T17:00:39.687Z,14.15
2023-01-11T17:03:24.681Z,12.10
2023-01-11T17:06:17.534Z,10.20
2023-01-11T17:08:48.083Z,15.85
2023-01-11T17:11:26.223Z,12.85
2023-01-11T17:14:10.909Z,11.63
2023-01-11T17:16:41.453Z,9.63
2023-01-11T17:19:16.172Z,16.58
2023-01-11T17:21:49.626Z,15.85
2023-01-11T17:24:19.018Z,12.70
2023-01-11T17:26:50.159Z,10.63
2023-01-11T17:29:22.745Z,11.33
2023-01-11T17:31:50.830Z,12.15
2023-01-11T17:34:28.416Z,9.93
2023-01-11T17:36:58.366Z,12.50
2023-01-11T17:39:29.479Z,13.55
2023-01-11T17:42:16.703Z,11.43
2023-01-11T17:45:03.105Z,16.63
2023-01-11T17:47:31.822Z,22.33
2023-01-11T17:50:02.923Z,14.50
2023-01-11T17:52:38.987Z,11.88
2023-01-11T17:55:17.634Z,13.52
2023-01-11T17:58:11.954Z,13.13
2023-01-11T18:00:40.999Z,8.48
2023-01-11T18:03:14.305Z,13.65
2023-01-11T18:05:44.215Z,12.93
2023-01-11T18:08:20.299Z,13.57
2023-01-11T18:10:54.487Z,12.18
2023-01-11T18:13:27.790Z,12.85
2023-01-11T18:15:55.978Z,12.75
2023-01-11T18:18:42.310Z,20.42
2023-01-11T18:21:43.227Z,9.88
2023-01-11T18:24:39.551Z,12.10
2023-01-11T18:27:15.633Z,11.80
2023-01-11T18:29:51.417Z,13.20
2023-01-11T18:32:20.211Z,11.55
2023-01-11T18:34:51.154Z,12.27
2023-01-11T18:37:20.779Z,11.57
2023-01-11T18:39:48.738Z,10.60
2023-01-11T18:42:19.122Z,13.13
2023-01-11T18:44:49.401Z,10.85
2023-01-11T18:47:20.216Z,11.40
2023-01-11T18:49:48.850Z,9.85
2023-01-11T18:52:17.413Z,10.73
2023-01-11T18:54:46.347Z,10.75
2023-01-11T18:57:14.029Z,18.27
2023-01-11T18:59:41.753Z,10.70
2023-01-11T19:02:29.328Z,11.07
2023-01-11T19:04:58.063Z,8.45
2023-01-11T19:07:26.876Z,9.15
2023-01-11T19:09:56.446Z,13.38
2023-01-11T19:12:24.622Z,10.93
2023-01-11T19:14:52.366Z,13.10
2023-01-11T19:17:20.090Z,6.15
2023-01-11T19:19:47.743Z,16.13
2023-01-11T19:22:15.401Z,8.98
2023-01-11T19:24:43.005Z,11.73
2023-01-11T19:27:15.251Z,9.23
2023-01-11T19:29:43.713Z,10.70
2023-01-11T19:32:11.357Z,8.82
2023-01-11T19:34:40.239Z,10.48
2023-01-11T19:37:07.964Z,11.13
2023-01-11T19:39:38.241Z,12.43
2023-01-11T19:42:06.097Z,10.50
2023-01-11T19:44:38.940Z,10.68
2023-01-11T19:47:12.836Z,11.30
2023-01-11T19:49:42.264Z,9.80
2023-01-11T19:52:12.949Z,11.27
2023-01-11T19:54:41.805Z,10.43
2023-01-11T19:57:11.406Z,8.60
2023-01-11T19:59:41.261Z,7.57
2023-01-11T20:02:10.758Z,8.32
2023-01-11T20:04:39.247Z,13.23
2023-01-11T20:07:08.945Z,9.63
2023-01-11T20:09:37.871Z,11.93
2023-01-11T20:12:06.408Z,11.90
2023-01-11T20:14:34.793Z,8.48
2023-01-11T20:17:04.347Z,10.57
2023-01-11T20:19:31.951Z,11.25
2023-01-11T20:21:59.596Z,13.48
2023-01-11T20:24:29.678Z,11.90
2023-01-11T20:26:58.706Z,11.02
2023-01-11T20:29:27.327Z,9.65
2023-01-11T20:31:55.817Z,17.15
2023-01-11T20:34:25.634Z,12.90
2023-01-11T20:36:53.386Z,10.75
2023-01-11T20:39:21.014Z,9.15
2023-01-11T20:41:48.705Z,17.15
2023-01-11T20:44:18.828Z,11.25
2023-01-11T20:46:48.309Z,8.50
2023-01-11T20:49:17.357Z,11.27
2023-01-11T20:51:47.661Z,14.02
2023-01-11T20:54:16.225Z,14.98
2023-01-11T20:56:46.342Z,9.75
2023-01-11T21:01:49.309Z,8.27
2023-01-11T21:04:19.236Z,12.57
2023-01-11T21:06:49.690Z,9.50
2023-01-11T21:09:18.951Z,12.32
2023-01-11T21:11:52.490Z,11.15
2023-01-11T21:14:21.032Z,11.63
2023-01-11T21:16:48.749Z,11.93
2023-01-11T21:19:16.929Z,14.05
2023-01-11T21:21:44.751Z,10.35
2023-01-11T21:24:15.109Z,13.15
2023-01-11T21:26:45.070Z,10.82
2023-01-11T21:29:13.210Z,12.93
2023-01-11T21:31:42.012Z,10.18
2023-01-11T21:34:11.734Z,10.98
2023-01-11T21:36:39.875Z,10.45
2023-01-11T21:39:09.146Z,11.02
2023-01-11T21:41:59.461Z,12.57
2023-01-11T21:44:30.733Z,11.70
2023-01-11T21:46:58.644Z,12.05
2023-01-11T21:49:26.245Z,11.57
2023-01-11T21:51:53.999Z,10.93
2023-01-11T21:54:21.970Z,12.80
2023-01-11T21:56:51.389Z,11.38
2023-01-11T21:59:21.279Z,15.80
2023-01-11T22:01:49.735Z,8.70
2023-01-11T22:04:20.253Z,11.32
2023-01-11T22:06:51.398Z,9.80
2023-01-11T22:09:19.933Z,12.70
2023-01-11T22:11:47.889Z,13.75
2023-01-11T22:14:16.825Z,12.07
2023-01-11T22:16:44.759Z,11.63
2023-01-11T22:19:12.768Z,9.48
2023-01-11T22:21:40.690Z,14.20
2023-01-11T22:24:10.890Z,12.50
2023-01-11T22:26:39.501Z,13.05
2023-01-11T22:29:16.276Z,12.63
2023-01-11T22:31:48.854Z,11.23
2023-01-11T22:36:45.169Z,11.43
2023-01-11T22:39:19.229Z,13.07
2023-01-11T22:41:49.662Z,11.35
2023-01-11T22:44:17.307Z,9.70
2023-01-11T22:46:49.243Z,11.68
2023-01-11T22:51:49.238Z,11.63
2023-01-11T22:54:17.333Z,10.98
2023-01-11T22:56:45.128Z,11.20
2023-01-11T22:59:12.713Z,11.02
2023-01-11T23:01:42.169Z,15.45
2023-01-11T23:04:14.859Z,7.75
2023-01-11T23:06:44.256Z,13.05
2023-01-11T23:09:16.021Z,10.65
2023-01-11T23:12:02.751Z,14.50
2023-01-11T23:14:31.238Z,11.77
2023-01-11T23:17:00.881Z,9.45
2023-01-11T23:19:31.912Z,10.38
2023-01-11T23:22:00.213Z,9.88
2023-01-11T23:24:27.877Z,10.95
2023-01-11T23:26:55.856Z,8.68
2023-01-11T23:29:23.722Z,7.60
2023-01-11T23:31:51.967Z,9.82
2023-01-11T23:34:19.747Z,8.85
2023-01-11T23:36:49.221Z,8.90
2023-01-11T23:39:18.623Z,13.45
2023-01-11T23:42:04.171Z,8.60
2023-01-11T23:44:32.206Z,9.88
2023-01-11T23:47:17.359Z,11.90
2023-01-11T23:49:45.638Z,7.55
2023-01-11T23:52:14.684Z,6.88
2023-01-11T23:54:43.284Z,11.18
2023-01-11T23:57:12.436Z,8.32
2023-01-11T23:59:40.855Z,8.80
